Detroit, Michigan
Traffic Map
Current Weather Conditions
Detroit, Michigan
Few Clouds
Few Clouds

Feels Like: -2°
Wind Chill: -2° Ceiling: Unl
Heat Index: Visibility: 15mi
Dew Point: Wind: 14mph
Humidity: 81% Direction: 40° (NE)
Pressure: 30.45in Gusts: 0mph
Raw Report DataCYQG 191200Z 04012KT 15SM FEW020 FEW270 03/00 A3045 RMK CF1CI1 TR CF SLP316
Traffic Incident Summary
Active as of:
Severity:
Category:
InformationThere was an issue retrieving the traffic information for this location. Please try a different location or try again shortly.
Advertisements
At Last! Intellicast now available for iPhone and Android